« Back
NWS Peachtree City, Ga » Text Product » ATL Terminal Aerodrome Forecast


Printer-friendly Version
Current Version              Previous Versions:   1  2  3  4  5  6  7  8  9  

Terminal Aerodrome Forecast

689
FTUS42 KFFC 282302 AAC
TAFATL
TAF AMD
KATL 282302Z 2823/0124 10011KT P6SM SCT100
     FM010100 08012KT P6SM BKN040
     FM010600 08013KT 4SM -DZ BKN008
     FM011000 08012KT 2SM -RADZ OVC004
     FM011600 08008KT 4SM -RADZ OVC006=



USA.gov is the U.S. government's official web portal to all federal, state and local government web resources and services.